Time;durP1;ratioP1;P1;durP2;ratioP2;P2;SDS_P1;SDS_P2;PMS_P1;PMS_P2;Temp;Humidity;BMP_temperature;BMP_pressure;BME280_temperature;BME280_humidity;BME280_pressure;Samples;Min_cycle;Max_cycle;Signal;HPM_P1;HPM_P2
2021/10/17 00:01:53;;;;;;;2.30;2.13;;;21.20;78.90;;;;;;5034902;28;20025;-70
2021/10/17 00:04:20;;;;;;;2.67;2.47;;;21.20;76.80;;;;;;5034509;28;20046;-70
2021/10/17 00:06:47;;;;;;;2.08;1.98;;;21.40;77.60;;;;;;5034872;28;20434;-70
2021/10/17 00:09:14;;;;;;;2.25;2.13;;;21.40;77.20;;;;;;5034728;28;20106;-69
2021/10/17 00:11:42;;;;;;;2.30;2.20;;;21.50;75.70;;;;;;5016811;28;20022;-69
2021/10/17 00:14:09;;;;;;;2.40;2.20;;;21.60;75.20;;;;;;5033284;28;20033;-69
2021/10/17 00:16:36;;;;;;;2.60;2.17;;;21.50;74.90;;;;;;5034384;28;20018;-69
2021/10/17 00:19:04;;;;;;;2.83;2.60;;;21.90;75.80;;;;;;5033357;28;20014;-69
2021/10/17 00:21:31;;;;;;;2.92;2.72;;;21.90;75.30;;;;;;5034387;28;20083;-69
2021/10/17 00:23:58;;;;;;;2.95;2.72;;;22.00;76.30;;;;;;5034457;28;20025;-69
2021/10/17 00:26:26;;;;;;;2.58;2.40;;;22.10;75.50;;;;;;5034333;28;20108;-69
2021/10/17 00:28:53;;;;;;;2.10;2.00;;;22.50;77.30;;;;;;5034311;28;20492;-69
2021/10/17 00:31:21;;;;;;;2.45;2.22;;;22.30;70.20;;;;;;5034189;28;20121;-69
2021/10/17 00:33:48;;;;;;;2.38;2.28;;;22.20;71.60;;;;;;5034193;28;20020;-68
2021/10/17 00:36:17;;;;;;;2.45;2.33;;;22.00;71.80;;;;;;5034166;28;20021;-69
2021/10/17 00:38:44;;;;;;;2.47;2.28;;;21.90;72.10;;;;;;5016289;28;20033;-69
2021/10/17 00:41:12;;;;;;;2.80;2.42;;;22.00;71.90;;;;;;5033930;28;20436;-69
2021/10/17 00:43:39;;;;;;;2.70;2.15;;;22.00;70.60;;;;;;5016201;28;20113;-70
2021/10/17 00:46:19;;;;;;;2.70;2.50;;;22.10;72.70;;;;;;5034065;28;20041;-70
2021/10/17 00:48:47;;;;;;;2.33;2.22;;;22.30;71.30;;;;;;5034092;28;20490;-69
2021/10/17 00:51:15;;;;;;;2.88;2.67;;;23.10;69.60;;;;;;5033841;28;20021;-70
2021/10/17 00:53:44;;;;;;;2.50;2.40;;;23.20;69.40;;;;;;5033865;28;20382;-70
2021/10/17 00:56:12;;;;;;;3.00;2.60;;;23.00;69.30;;;;;;5033771;28;20045;-69
2021/10/17 00:58:39;;;;;;;2.58;2.40;;;22.90;69.70;;;;;;5033764;28;20043;-70
2021/10/17 01:01:07;;;;;;;2.60;2.50;;;23.00;72.00;;;;;;5015943;28;20507;-70
2021/10/17 01:03:34;;;;;;;2.72;2.53;;;23.10;69.50;;;;;;5033601;28;20093;-70
2021/10/17 01:06:02;;;;;;;2.33;2.20;;;23.20;70.10;;;;;;5015733;28;20034;-70
2021/10/17 01:08:30;;;;;;;2.13;2.03;;;23.40;69.80;;;;;;5033614;28;20061;-70
2021/10/17 01:10:58;;;;;;;2.42;2.33;;;23.60;69.50;;;;;;5015717;28;20078;-70
2021/10/17 01:13:26;;;;;;;2.85;2.50;;;24.00;70.00;;;;;;5033519;28;20029;-71
2021/10/17 01:15:55;;;;;;;2.25;2.15;;;23.70;67.60;;;;;;5033367;28;20028;-70
2021/10/17 01:18:24;;;;;;;2.15;2.05;;;23.50;67.20;;;;;;5032159;28;20513;-70
2021/10/17 01:20:52;;;;;;;2.33;2.15;;;23.10;66.90;;;;;;5033340;28;20059;-69
2021/10/17 01:23:21;;;;;;;2.63;2.30;;;23.30;68.30;;;;;;5033426;28;20453;-69
2021/10/17 01:25:49;;;;;;;4.28;2.90;;;23.40;73.20;;;;;;5033367;28;20017;-68
2021/10/17 01:28:17;;;;;;;3.13;2.60;;;23.30;75.50;;;;;;5033265;28;20018;-68
2021/10/17 01:30:45;;;;;;;3.20;2.80;;;23.70;76.30;;;;;;5033026;28;20029;-69
2021/10/17 01:33:12;;;;;;;2.83;2.40;;;23.60;76.80;;;;;;5033256;28;20025;-70
2021/10/17 01:35:40;;;;;;;3.55;2.50;;;23.50;76.40;;;;;;5033177;28;20117;-69
2021/10/17 01:38:10;;;;;;;3.10;2.70;;;23.60;76.70;;;;;;5033165;28;20071;-70
2021/10/17 01:40:38;;;;;;;3.10;2.78;;;23.50;75.50;;;;;;5033025;28;20116;-69
2021/10/17 01:43:06;;;;;;;3.47;2.47;;;23.40;76.40;;;;;;5033089;28;20080;-69
2021/10/17 01:45:33;;;;;;;3.65;2.60;;;23.60;76.50;;;;;;5033019;28;20052;-69
2021/10/17 01:48:02;;;;;;;3.70;2.47;;;23.50;75.90;;;;;;5032988;28;20067;-68
2021/10/17 01:50:30;;;;;;;2.90;2.55;;;23.60;76.20;;;;;;5032966;28;20116;-70
2021/10/17 01:52:57;;;;;;;4.68;2.88;;;23.50;76.90;;;;;;5033052;28;20101;-70
2021/10/17 01:55:24;;;;;;;3.22;2.50;;;23.80;78.60;;;;;;5032937;28;20026;-70
2021/10/17 01:57:52;;;;;;;2.97;2.63;;;23.90;75.80;;;;;;5033071;28;20028;-71
2021/10/17 02:00:19;;;;;;;2.40;2.28;;;23.70;76.30;;;;;;5032852;28;20029;-70
2021/10/17 02:02:46;;;;;;;2.40;2.20;;;23.70;76.50;;;;;;5032834;28;20553;-70
2021/10/17 02:05:14;;;;;;;4.80;2.42;;;23.70;76.30;;;;;;5032584;28;20033;-70
2021/10/17 02:07:41;;;;;;;3.03;2.67;;;23.70;77.00;;;;;;5015146;28;20025;-71
2021/10/17 02:10:09;;;;;;;4.22;2.47;;;23.60;77.10;;;;;;5032918;28;20502;-71
2021/10/17 02:12:36;;;;;;;2.42;2.30;;;23.90;78.20;;;;;;5015018;28;20037;-71
2021/10/17 02:15:05;;;;;;;2.50;2.30;;;23.90;76.40;;;;;;5032772;28;20051;-71
2021/10/17 02:17:33;;;;;;;2.88;2.38;;;23.90;76.40;;;;;;5032776;28;20505;-71
2021/10/17 02:20:00;;;;;;;2.38;2.17;;;23.90;76.60;;;;;;5032623;28;20030;-70
2021/10/17 02:22:28;;;;;;;3.35;3.05;;;23.60;76.00;;;;;;5031346;28;20080;-70
2021/10/17 02:24:55;;;;;;;3.17;2.60;;;23.50;76.90;;;;;;5015109;28;20021;-70
2021/10/17 02:27:22;;;;;;;4.20;2.60;;;23.40;78.10;;;;;;5032665;28;20024;-70
2021/10/17 02:29:50;;;;;;;3.13;2.55;;;23.70;79.20;;;;;;5031271;28;20075;-70
2021/10/17 02:32:17;;;;;;;3.72;2.55;;;23.60;77.50;;;;;;5032529;28;20391;-70
2021/10/17 02:34:44;;;;;;;2.75;2.40;;;23.50;77.30;;;;;;5032781;28;20060;-70
2021/10/17 02:37:12;;;;;;;2.83;2.30;;;24.00;78.40;;;;;;5032591;28;20036;-70
2021/10/17 02:39:39;;;;;;;3.28;2.42;;;24.10;78.00;;;;;;5031139;28;20037;-70
2021/10/17 02:42:07;;;;;;;3.75;2.70;;;24.10;77.30;;;;;;5034657;28;20471;-70
2021/10/17 02:44:34;;;;;;;2.70;2.50;;;24.00;78.70;;;;;;5036360;28;20022;-70
2021/10/17 02:47:01;;;;;;;3.60;2.50;;;23.90;78.20;;;;;;5018471;28;20482;-70
2021/10/17 02:49:29;;;;;;;2.72;2.30;;;23.80;77.90;;;;;;5036407;28;20383;-70
2021/10/17 02:51:56;;;;;;;2.80;2.60;;;23.60;77.60;;;;;;5036322;28;20028;-70
2021/10/17 02:54:24;;;;;;;2.58;2.38;;;23.50;79.60;;;;;;5018469;28;20034;-70
2021/10/17 02:56:51;;;;;;;4.00;2.53;;;24.00;80.20;;;;;;5036154;28;20022;-70
2021/10/17 02:59:19;;;;;;;3.08;2.50;;;23.60;78.80;;;;;;5036067;28;20018;-70
2021/10/17 03:01:46;;;;;;;4.75;2.80;;;23.60;79.70;;;;;;5036144;28;20072;-70
2021/10/17 03:04:14;;;;;;;3.47;2.70;;;23.70;79.60;;;;;;5035757;28;20022;-70
2021/10/17 03:06:41;;;;;;;3.97;2.55;;;23.50;80.50;;;;;;5036060;28;20025;-70
2021/10/17 03:09:08;;;;;;;2.97;2.60;;;23.40;77.90;;;;;;5034614;28;20022;-71
2021/10/17 03:11:36;;;;;;;4.30;2.80;;;23.30;77.50;;;;;;5035875;28;20104;-71
2021/10/17 03:14:05;;;;;;;3.22;2.53;;;23.40;79.40;;;;;;5018065;28;20536;-70
2021/10/17 03:16:32;;;;;;;3.08;2.30;;;23.70;79.80;;;;;;5035904;28;20060;-71
2021/10/17 03:18:59;;;;;;;3.83;2.67;;;23.60;79.50;;;;;;5035745;28;20034;-70
2021/10/17 03:21:27;;;;;;;5.88;2.80;;;23.90;79.80;;;;;;5035557;28;20044;-71
2021/10/17 03:23:55;;;;;;;3.42;2.67;;;24.20;80.90;;;;;;5017886;28;20421;-71
2021/10/17 03:26:22;;;;;;;3.75;2.83;;;24.10;79.70;;;;;;5035662;28;20025;-71
2021/10/17 03:28:49;;;;;;;4.70;2.20;;;23.90;80.40;;;;;;5035589;28;20112;-71
2021/10/17 03:31:17;;;;;;;2.85;2.53;;;24.10;76.70;;;;;;5035546;28;20028;-70
2021/10/17 03:33:44;;;;;;;3.28;2.42;;;24.00;78.20;;;;;;5035508;28;20021;-71
2021/10/17 03:36:11;;;;;;;4.00;2.47;;;23.80;77.70;;;;;;5035419;28;20021;-71
2021/10/17 03:38:39;;;;;;;3.28;2.35;;;23.50;80.60;;;;;;5035359;28;20032;-70
2021/10/17 03:41:06;;;;;;;3.25;1.98;;;23.50;81.00;;;;;;5035264;28;20040;-71
2021/10/17 03:43:34;;;;;;;3.58;2.10;;;23.70;80.40;;;;;;5035267;28;20442;-70
2021/10/17 03:46:01;;;;;;;5.10;2.40;;;23.50;77.40;;;;;;5035204;28;20014;-70
2021/10/17 03:48:28;;;;;;;3.85;2.50;;;23.50;79.00;;;;;;5035218;28;20144;-70
2021/10/17 03:50:56;;;;;;;3.85;2.50;;;23.40;80.70;;;;;;5035135;28;20030;-70
2021/10/17 03:53:23;;;;;;;3.78;2.25;;;23.50;81.00;;;;;;5034858;28;20029;-70
2021/10/17 03:55:50;;;;;;;3.45;2.45;;;23.50;81.30;;;;;;5035147;28;20025;-71
2021/10/17 03:58:18;;;;;;;2.42;2.00;;;23.80;80.40;;;;;;5033562;28;20028;-70
2021/10/17 04:00:45;;;;;;;2.40;2.17;;;23.80;81.00;;;;;;5034947;28;20390;-70
2021/10/17 04:03:12;;;;;;;5.03;2.40;;;23.90;80.40;;;;;;5034883;28;20077;-70
2021/10/17 04:05:40;;;;;;;5.40;2.40;;;23.70;79.90;;;;;;5016606;28;20187;-70
2021/10/17 04:08:08;;;;;;;2.50;1.88;;;23.60;80.90;;;;;;5034683;28;20030;-70
2021/10/17 04:10:36;;;;;;;3.00;2.47;;;23.50;79.70;;;;;;5034694;28;20100;-70
2021/10/17 04:13:04;;;;;;;2.85;2.45;;;23.90;80.50;;;;;;5034544;28;20117;-71
2021/10/17 04:15:38;;;;;;;3.78;2.40;;;23.40;80.20;;;;;;5034634;28;20474;-70
2021/10/17 04:18:06;;;;;;;2.67;2.40;;;23.50;80.90;;;;;;5016870;28;20477;-70
2021/10/17 04:20:33;;;;;;;3.83;2.50;;;23.10;82.60;;;;;;5034432;28;20372;-70
2021/10/17 04:23:03;;;;;;;5.60;2.60;;;23.20;81.20;;;;;;5034476;28;20100;-70
2021/10/17 04:25:30;;;;;;;3.67;2.57;;;23.00;83.40;;;;;;5034279;28;20495;-71
2021/10/17 04:27:58;;;;;;;4.22;3.03;;;23.20;84.20;;;;;;5034377;28;20018;-70
2021/10/17 04:30:25;;;;;;;3.25;2.40;;;23.30;83.00;;;;;;5034354;28;20029;-70
2021/10/17 04:32:53;;;;;;;2.80;2.60;;;23.40;81.00;;;;;;5034570;28;20441;-71
2021/10/17 04:35:20;;;;;;;5.63;2.78;;;23.20;81.90;;;;;;5016519;28;20029;-71
2021/10/17 04:37:47;;;;;;;4.03;2.55;;;23.10;82.10;;;;;;5034216;28;20029;-70
2021/10/17 04:40:15;;;;;;;3.83;3.08;;;23.30;82.90;;;;;;5016345;28;20026;-71
2021/10/17 04:42:42;;;;;;;3.70;2.90;;;23.40;83.10;;;;;;5034140;28;20109;-71
2021/10/17 04:45:10;;;;;;;3.28;2.70;;;23.20;81.60;;;;;;5034027;28;20113;-70
2021/10/17 04:47:38;;;;;;;4.57;2.38;;;23.30;81.00;;;;;;5033968;28;20029;-71
2021/10/17 04:50:06;;;;;;;3.53;2.60;;;22.90;82.30;;;;;;5032641;28;20112;-70
2021/10/17 04:52:33;;;;;;;4.05;2.80;;;22.90;82.20;;;;;;5033888;28;20022;-70
2021/10/17 04:55:01;;;;;;;3.75;2.75;;;22.90;83.90;;;;;;5033858;28;20477;-70
2021/10/17 04:57:28;;;;;;;4.38;2.90;;;23.10;84.00;;;;;;5032526;28;20459;-70
2021/10/17 04:59:55;;;;;;;5.60;3.30;;;23.10;83.50;;;;;;5033655;28;20129;-70
2021/10/17 05:02:22;;;;;;;4.82;3.08;;;23.00;82.70;;;;;;5032398;28;20021;-71
2021/10/17 05:04:50;;;;;;;4.68;2.90;;;22.80;82.90;;;;;;5032815;28;20041;-71
2021/10/17 05:07:17;;;;;;;2.83;2.20;;;22.90;82.30;;;;;;5033590;28;20017;-71
2021/10/17 05:09:44;;;;;;;2.92;2.50;;;23.00;83.10;;;;;;5033482;28;20029;-71
2021/10/17 05:12:12;;;;;;;2.78;2.50;;;22.80;83.50;;;;;;5033375;28;20017;-70
2021/10/17 05:14:39;;;;;;;5.18;2.42;;;23.10;84.50;;;;;;5033365;28;20048;-70
2021/10/17 05:17:06;;;;;;;3.55;2.40;;;22.90;84.70;;;;;;5033729;28;20029;-70
2021/10/17 05:19:33;;;;;;;3.78;2.80;;;22.90;84.50;;;;;;5033241;28;20032;-70
2021/10/17 05:22:01;;;;;;;3.50;2.80;;;22.40;83.80;;;;;;5015445;28;20022;-70
2021/10/17 05:24:28;;;;;;;3.70;2.80;;;22.50;84.30;;;;;;5033120;28;20021;-70
2021/10/17 05:26:55;;;;;;;5.30;3.28;;;22.30;82.20;;;;;;5032938;28;20025;-70
2021/10/17 05:29:23;;;;;;;3.22;2.40;;;22.20;82.50;;;;;;5015360;28;20474;-71
2021/10/17 05:31:50;;;;;;;3.60;2.40;;;22.40;83.60;;;;;;5032990;28;20359;-70
2021/10/17 05:34:17;;;;;;;2.85;2.65;;;22.30;83.30;;;;;;5032979;28;20016;-71
2021/10/17 05:36:45;;;;;;;2.83;2.58;;;21.80;83.50;;;;;;5032980;28;20028;-70
2021/10/17 05:39:12;;;;;;;2.45;2.25;;;21.90;84.80;;;;;;5032982;28;20025;-71
2021/10/17 05:41:39;;;;;;;2.70;2.50;;;22.40;84.80;;;;;;5032820;28;20048;-70
2021/10/17 05:44:07;;;;;;;3.50;2.72;;;22.60;85.20;;;;;;5033142;28;20056;-70
2021/10/17 05:46:34;;;;;;;2.90;2.42;;;23.10;86.20;;;;;;5032900;28;20040;-70
2021/10/17 05:49:01;;;;;;;4.18;2.50;;;23.20;84.80;;;;;;5033042;28;20060;-70
2021/10/17 05:51:29;;;;;;;3.22;2.35;;;23.00;85.10;;;;;;5032973;28;20108;-71
2021/10/17 05:53:56;;;;;;;4.43;2.42;;;22.80;85.40;;;;;;5032860;28;20037;-71
2021/10/17 05:56:23;;;;;;;3.22;2.47;;;22.80;86.10;;;;;;5032801;28;20022;-71
2021/10/17 05:58:50;;;;;;;2.70;2.50;;;22.60;87.40;;;;;;5032746;28;20478;-71
2021/10/17 06:01:18;;;;;;;5.32;2.40;;;22.20;87.90;;;;;;5031376;28;20025;-70
2021/10/17 06:03:45;;;;;;;4.88;2.90;;;22.10;88.10;;;;;;5032686;28;20018;-70
2021/10/17 06:06:14;;;;;;;4.68;2.90;;;22.10;88.60;;;;;;5032649;28;20072;-70
2021/10/17 06:08:41;;;;;;;3.35;2.90;;;22.20;88.90;;;;;;5032541;28;20021;-70
2021/10/17 06:11:08;;;;;;;3.60;2.80;;;22.30;87.60;;;;;;5014736;28;20025;-69
2021/10/17 06:13:36;;;;;;;5.47;2.80;;;22.20;89.10;;;;;;5032586;28;20057;-70
2021/10/17 06:16:03;;;;;;;3.58;2.50;;;22.20;89.40;;;;;;5015269;28;20033;-69
2021/10/17 06:18:31;;;;;;;5.28;2.70;;;22.20;89.10;;;;;;5036643;28;20510;-70
2021/10/17 06:21:02;;;;;;;5.43;2.60;;;22.10;90.20;;;;;;5036975;28;20037;-68
2021/10/17 06:23:29;;;;;;;4.80;2.45;;;22.10;90.60;;;;;;5036433;28;20022;-69
2021/10/17 06:25:57;;;;;;;6.65;2.60;;;22.00;91.20;;;;;;5036411;28;20025;-70
2021/10/17 06:28:24;;;;;;;3.80;2.55;;;22.20;90.70;;;;;;5036198;28;20068;-71
2021/10/17 06:30:52;;;;;;;3.13;2.65;;;22.30;90.70;;;;;;5036382;28;20109;-70
2021/10/17 06:33:19;;;;;;;2.60;2.40;;;22.40;90.30;;;;;;5036451;28;20041;-70
2021/10/17 06:35:47;;;;;;;4.03;2.53;;;22.40;90.60;;;;;;5036259;28;20423;-69
2021/10/17 06:38:14;;;;;;;4.13;2.55;;;22.70;90.40;;;;;;5034960;28;20394;-69
2021/10/17 06:40:41;;;;;;;3.60;2.40;;;22.90;90.40;;;;;;5036164;28;20088;-70
2021/10/17 06:43:09;;;;;;;4.28;3.10;;;22.70;90.50;;;;;;5036029;28;20032;-69
2021/10/17 06:45:36;;;;;;;4.60;2.50;;;22.70;90.60;;;;;;5036020;28;20018;-70
2021/10/17 06:48:03;;;;;;;4.13;2.67;;;22.60;91.20;;;;;;5036236;28;20486;-70
2021/10/17 06:50:31;;;;;;;3.65;2.40;;;22.90;90.90;;;;;;5036065;28;20029;-70
2021/10/17 06:52:58;;;;;;;3.97;2.63;;;22.50;91.10;;;;;;5036031;28;20025;-70
2021/10/17 06:55:25;;;;;;;2.88;2.60;;;22.60;90.90;;;;;;5017950;28;20052;-70
2021/10/17 06:57:53;;;;;;;3.33;2.60;;;22.50;90.60;;;;;;5035824;28;20029;-71
2021/10/17 07:00:20;;;;;;;3.20;2.00;;;21.90;91.40;;;;;;5035856;28;20033;-71
2021/10/17 07:02:47;;;;;;;3.83;2.50;;;21.50;91.80;;;;;;5035926;28;20025;-71
2021/10/17 07:05:15;;;;;;;6.68;2.40;;;21.10;92.50;;;;;;5035617;28;20513;-71
2021/10/17 07:07:42;;;;;;;3.80;2.00;;;20.80;93.80;;;;;;5034503;28;20017;-71
2021/10/17 07:10:09;;;;;;;4.13;2.05;;;20.40;94.30;;;;;;5035784;28;20379;-70
2021/10/17 07:12:37;;;;;;;6.25;2.65;;;20.10;95.20;;;;;;5035684;28;20029;-69
2021/10/17 07:15:04;;;;;;;5.22;2.97;;;20.00;96.00;;;;;;5035562;28;20053;-69
2021/10/17 07:17:32;;;;;;;5.55;3.10;;;19.80;95.70;;;;;;5035590;28;20021;-69
2021/10/17 07:19:59;;;;;;;6.43;3.30;;;19.60;96.30;;;;;;5035424;28;20033;-69
2021/10/17 07:22:26;;;;;;;5.00;3.00;;;19.50;97.00;;;;;;5017661;28;20039;-70
2021/10/17 07:24:54;;;;;;;4.70;3.20;;;19.40;97.50;;;;;;5035538;28;20421;-70
2021/10/17 07:27:21;;;;;;;6.25;3.40;;;19.30;98.90;;;;;;5034961;28;20021;-69
2021/10/17 07:29:48;;;;;;;4.97;3.50;;;19.10;99.60;;;;;;5035443;28;20025;-69
2021/10/17 07:32:16;;;;;;;5.18;3.63;;;19.10;99.90;;;;;;5017561;28;20029;-69
2021/10/17 07:34:43;;;;;;;7.05;3.63;;;19.00;99.90;;;;;;5035287;28;20024;-70
2021/10/17 07:37:10;;;;;;;6.72;3.50;;;18.80;99.90;;;;;;5033837;28;20486;-69
2021/10/17 07:39:38;;;;;;;4.63;3.83;;;18.80;99.90;;;;;;5035277;28;20084;-69
2021/10/17 07:42:05;;;;;;;6.22;3.85;;;18.60;99.90;;;;;;5035171;28;20446;-70
2021/10/17 07:44:33;;;;;;;8.55;3.95;;;18.60;99.90;;;;;;5035172;28;20090;-70
2021/10/17 07:47:00;;;;;;;8.10;4.13;;;18.50;99.90;;;;;;5035037;28;20382;-70
2021/10/17 07:49:27;;;;;;;7.38;4.28;;;18.30;99.90;;;;;;5035061;28;20013;-70
2021/10/17 07:51:55;;;;;;;8.43;4.43;;;18.20;99.90;;;;;;5035053;28;20148;-71
2021/10/17 07:54:22;;;;;;;5.63;4.30;;;18.10;99.90;;;;;;5034985;28;20021;-71
2021/10/17 07:56:49;;;;;;;7.07;4.70;;;18.10;99.90;;;;;;5017163;28;20176;-72
2021/10/17 07:59:17;;;;;;;8.63;4.55;;;18.00;99.90;;;;;;5034921;28;20386;-71
2021/10/17 08:01:44;;;;;;;5.50;3.92;;;17.90;99.90;;;;;;5017000;28;20390;-72
2021/10/17 08:04:11;;;;;;;7.13;4.72;;;17.90;99.90;;;;;;5034588;28;20029;-70
2021/10/17 08:06:39;;;;;;;7.38;4.55;;;17.80;99.90;;;;;;5034859;28;20033;-70
2021/10/17 08:09:06;;;;;;;6.70;4.40;;;17.70;99.90;;;;;;5034786;28;20184;-69
2021/10/17 08:11:33;;;;;;;7.35;4.35;;;17.60;99.90;;;;;;5034824;28;20022;-70
2021/10/17 08:14:00;;;;;;;8.88;4.97;;;17.60;99.90;;;;;;5034629;28;20385;-70
2021/10/17 08:16:28;;;;;;;9.18;4.40;;;17.50;99.90;;;;;;5034625;28;20037;-71
2021/10/17 08:18:55;;;;;;;6.72;5.00;;;17.50;99.90;;;;;;5034338;28;20026;-71
2021/10/17 08:21:22;;;;;;;7.43;5.50;;;17.50;99.90;;;;;;5016750;28;20065;-72
2021/10/17 08:23:50;;;;;;;14.25;5.78;;;17.40;99.90;;;;;;5034323;28;20031;-72
2021/10/17 08:26:17;;;;;;;7.20;5.25;;;17.40;99.90;;;;;;5034368;28;20026;-72
2021/10/17 08:28:44;;;;;;;6.63;5.32;;;17.40;99.90;;;;;;5034274;28;20018;-72
2021/10/17 08:31:11;;;;;;;7.57;5.15;;;17.30;99.90;;;;;;5034410;28;20025;-72
2021/10/17 08:33:39;;;;;;;9.10;5.93;;;17.30;99.90;;;;;;5034175;28;20487;-71
2021/10/17 08:36:06;;;;;;;5.95;5.35;;;17.30;99.90;;;;;;5034259;28;20028;-73
2021/10/17 08:38:34;;;;;;;8.95;5.00;;;17.20;99.90;;;;;;5033557;28;20025;-72
2021/10/17 08:41:01;;;;;;;8.10;5.55;;;17.20;99.90;;;;;;5033873;28;20032;-71
2021/10/17 08:43:29;;;;;;;8.77;5.47;;;17.20;99.90;;;;;;5032732;28;20021;-71
2021/10/17 08:45:56;;;;;;;10.38;5.60;;;17.10;99.90;;;;;;5034323;28;20030;-71
2021/10/17 08:48:32;;;;;;;6.85;5.88;;;17.10;99.90;;;;;;5033713;28;20386;-71
2021/10/17 08:51:01;;;;;;;12.00;7.05;;;17.00;99.90;;;;;;5034049;28;20155;-71
2021/10/17 08:53:29;;;;;;;9.02;6.25;;;17.00;99.90;;;;;;5033921;28;20104;-71
2021/10/17 08:55:56;;;;;;;8.05;5.97;;;16.90;99.90;;;;;;5033921;28;20036;-71
2021/10/17 08:58:23;;;;;;;7.57;6.72;;;16.90;99.90;;;;;;5033818;28;20021;-71
2021/10/17 09:00:51;;;;;;;8.55;5.95;;;16.90;99.90;;;;;;5032321;28;20036;-69
2021/10/17 09:03:31;;;;;;;6.88;6.10;;;16.90;99.90;;;;;;5033793;28;20025;-68
2021/10/17 09:06:14;;;;;;;12.07;6.15;;;16.90;99.90;;;;;;5033603;28;20104;-69
2021/10/17 09:08:41;;;;;;;6.82;6.13;;;16.90;99.90;;;;;;5015957;28;20022;-70
2021/10/17 09:11:08;;;;;;;9.68;7.22;;;16.90;99.90;;;;;;5033528;28;20025;-70
2021/10/17 09:13:35;;;;;;;10.77;7.18;;;16.90;99.90;;;;;;5015682;28;20095;-69
2021/10/17 09:16:23;;;;;;;9.63;7.40;;;16.80;99.90;;;;;;5033445;28;20017;-69
2021/10/17 09:19:09;;;;;;;12.52;7.18;;;16.80;99.90;;;;;;5033399;28;20029;-71
2021/10/17 09:21:36;;;;;;;9.18;7.35;;;16.80;99.90;;;;;;5015611;28;20136;-72
2021/10/17 09:24:04;;;;;;;8.20;7.35;;;16.80;99.90;;;;;;5032210;28;20053;-71
2021/10/17 09:26:37;;;;;;;9.40;6.60;;;16.70;99.90;;;;;;5031883;28;20076;-72
2021/10/17 09:29:04;;;;;;;11.93;6.90;;;16.70;99.90;;;;;;5033300;28;20018;-72
2021/10/17 09:31:31;;;;;;;10.23;6.88;;;16.70;99.90;;;;;;5015458;28;20021;-71
2021/10/17 09:33:59;;;;;;;13.20;7.82;;;16.60;99.90;;;;;;5031911;28;20075;-71
2021/10/17 09:36:32;;;;;;;13.52;7.72;;;16.60;99.90;;;;;;5015429;28;20032;-72
2021/10/17 09:39:10;;;;;;;9.18;7.40;;;16.50;99.90;;;;;;5033235;28;20029;-72
2021/10/17 09:41:49;;;;;;;8.65;7.50;;;16.50;99.90;;;;;;5033059;28;20022;-72
2021/10/17 09:44:16;;;;;;;9.68;7.43;;;16.40;99.90;;;;;;5032963;28;20017;-72
2021/10/17 09:47:00;;;;;;;8.52;6.75;;;16.50;99.90;;;;;;5031634;28;20431;-71
2021/10/17 09:49:28;;;;;;;12.10;8.13;;;16.50;99.90;;;;;;5033003;28;20021;-72
2021/10/17 09:52:16;;;;;;;10.57;8.15;;;16.50;99.90;;;;;;5032709;28;20025;-72
2021/10/17 09:54:46;;;;;;;16.58;8.50;;;16.40;99.90;;;;;;5015130;28;20521;-71
2021/10/17 09:57:14;;;;;;;12.25;8.05;;;16.40;99.90;;;;;;5031567;28;20029;-71
2021/10/17 09:59:42;;;;;;;9.77;7.72;;;16.40;99.90;;;;;;5032744;28;20044;-71
2021/10/17 10:02:12;;;;;;;14.32;8.30;;;16.30;99.90;;;;;;5015346;28;20402;-71
2021/10/17 10:04:42;;;;;;;13.33;8.00;;;16.30;99.90;;;;;;5032661;28;20091;-71
2021/10/17 10:07:15;;;;;;;8.13;7.30;;;16.30;99.90;;;;;;5032854;28;20029;-71
2021/10/17 10:09:48;;;;;;;13.77;8.13;;;16.30;99.90;;;;;;5015193;28;20028;-71
2021/10/17 10:12:18;;;;;;;9.45;7.50;;;16.20;99.90;;;;;;5032763;28;20540;-71
2021/10/17 10:14:46;;;;;;;;;;;16.20;99.90;;;;;;5033104;28;20114;-71
2021/10/17 10:17:16;;;;;;;14.10;7.95;;;16.20;99.90;;;;;;5032793;28;19905;-71
2021/10/17 10:19:45;;;;;;;9.95;8.65;;;16.10;99.90;;;;;;5032439;28;20022;-71
2021/10/17 10:22:14;;;;;;;11.75;7.97;;;16.10;99.90;;;;;;5032466;28;20100;-70
2021/10/17 10:24:45;;;;;;;13.83;8.43;;;16.10;99.90;;;;;;5032570;28;20530;-70
2021/10/17 10:27:13;;;;;;;16.42;8.65;;;16.10;99.90;;;;;;5031147;28;20021;-70
2021/10/17 10:29:41;;;;;;;9.00;8.10;;;16.10;99.90;;;;;;5032521;28;20014;-71
2021/10/17 10:32:08;;;;;;;10.43;8.00;;;16.10;99.90;;;;;;5032453;28;20013;-71
2021/10/17 10:34:38;;;;;;;12.75;8.55;;;16.00;99.90;;;;;;5032492;28;20026;-72
2021/10/17 10:37:17;;;;;;;8.68;7.85;;;16.00;99.90;;;;;;5015192;28;20446;-72
2021/10/17 10:40:06;;;;;;;9.38;8.15;;;16.00;99.90;;;;;;5032402;28;20453;-71
2021/10/17 10:42:41;;;;;;;12.40;8.90;;;16.00;99.90;;;;;;5032402;28;20018;-70
2021/10/17 10:45:37;;;;;;;11.00;9.05;;;15.90;99.90;;;;;;5032375;28;20424;-71
2021/10/17 10:48:14;;;;;;;12.25;9.15;;;15.90;99.90;;;;;;5032480;28;20028;-71
2021/10/17 10:50:47;;;;;;;9.23;8.32;;;15.90;99.90;;;;;;5032455;28;20021;-71
2021/10/17 10:53:54;;;;;;;9.98;8.48;;;15.80;99.90;;;;;;5030993;28;20025;-71
2021/10/17 10:56:44;;;;;;;11.13;8.90;;;15.80;99.90;;;;;;5014450;28;20455;-71
2021/10/17 10:59:13;;;;;;;8.80;7.90;;;15.80;99.90;;;;;;5032316;28;20033;-70
2021/10/17 11:02:00;;;;;;;11.07;8.60;;;15.80;99.90;;;;;;5032178;28;20486;-71
2021/10/17 11:04:44;;;;;;;8.57;7.88;;;15.70;99.90;;;;;;5035772;28;20041;-71
2021/10/17 11:07:32;;;;;;;9.07;8.23;;;15.70;99.90;;;;;;5035960;28;20067;-71
2021/10/17 11:10:22;;;;;;;9.70;8.25;;;15.70;99.90;;;;;;5036004;28;20363;-71
2021/10/17 11:12:50;;;;;;;8.75;8.00;;;15.60;99.90;;;;;;5026548;28;20139;-71
2021/10/17 11:15:24;;;;;;;10.35;8.45;;;15.60;99.90;;;;;;5034407;28;20479;-71
2021/10/17 11:17:56;;;;;;;11.45;8.05;;;15.60;99.90;;;;;;5035732;28;20076;-71
2021/10/17 11:20:26;;;;;;;11.60;9.02;;;15.50;99.90;;;;;;5035501;28;20048;-71
2021/10/17 11:22:54;;;;;;;9.18;8.23;;;15.50;99.90;;;;;;5035503;28;20152;-71
2021/10/17 11:25:24;;;;;;;10.43;9.32;;;15.50;99.90;;;;;;5017963;28;20032;-70
2021/10/17 11:27:52;;;;;;;10.45;9.43;;;15.60;99.90;;;;;;5017827;28;20025;-70
2021/10/17 11:30:30;;;;;;;12.43;9.95;;;15.60;99.90;;;;;;5035497;28;20120;-72
2021/10/17 11:32:59;;;;;;;12.20;10.55;;;15.50;99.90;;;;;;5035467;28;20030;-70
2021/10/17 11:35:32;;;;;;;11.48;10.30;;;15.50;99.90;;;;;;5035413;28;20021;-70
2021/10/17 11:38:01;;;;;;;10.63;9.75;;;15.50;99.90;;;;;;5017590;28;20045;-71
2021/10/17 11:40:29;;;;;;;15.15;11.00;;;15.50;99.90;;;;;;5035284;28;20029;-71
2021/10/17 11:43:02;;;;;;;11.38;10.40;;;15.50;99.90;;;;;;5035288;28;20137;-71
2021/10/17 11:45:32;;;;;;;12.32;11.10;;;15.50;99.90;;;;;;5035228;28;20099;-71
2021/10/17 11:48:02;;;;;;;14.95;11.45;;;15.50;99.90;;;;;;5035186;28;20339;-71
2021/10/17 11:50:34;;;;;;;12.15;10.93;;;15.40;99.90;;;;;;5035216;28;20026;-71
2021/10/17 11:53:07;;;;;;;11.93;10.70;;;15.40;99.90;;;;;;5017328;28;20025;-71
2021/10/17 11:55:53;;;;;;;16.13;11.70;;;15.40;99.90;;;;;;5017313;28;20060;-71
2021/10/17 11:58:23;;;;;;;14.20;10.70;;;15.40;99.90;;;;;;5035090;28;20032;-71
2021/10/17 12:00:56;;;;;;;11.43;10.20;;;15.30;99.90;;;;;;5017252;28;20056;-71
2021/10/17 12:03:25;;;;;;;14.10;10.65;;;15.30;99.90;;;;;;5035047;28;20479;-71
2021/10/17 12:05:54;;;;;;;12.95;10.98;;;15.30;99.90;;;;;;5017068;28;20049;-71
2021/10/17 12:08:30;;;;;;;14.00;11.50;;;15.30;99.90;;;;;;5017065;28;20049;-71
2021/10/17 12:11:10;;;;;;;19.70;11.65;;;15.20;99.90;;;;;;5034865;28;20049;-71
2021/10/17 12:13:46;;;;;;;12.73;11.45;;;15.20;99.90;;;;;;5034735;28;20033;-71
2021/10/17 12:16:23;;;;;;;11.87;10.90;;;15.20;99.90;;;;;;5034663;28;20049;-71
2021/10/17 12:18:58;;;;;;;12.77;11.30;;;15.20;99.90;;;;;;5034649;28;20029;-71
2021/10/17 12:21:34;;;;;;;12.65;11.65;;;15.10;99.90;;;;;;5016807;28;20144;-71
2021/10/17 12:24:04;;;;;;;12.27;10.98;;;15.10;99.90;;;;;;5034569;28;20028;-71
2021/10/17 12:26:34;;;;;;;13.40;11.10;;;15.10;99.90;;;;;;5034462;28;20088;-71
2021/10/17 12:29:15;;;;;;;12.80;11.55;;;15.00;99.90;;;;;;5016969;28;20049;-71
2021/10/17 12:31:54;;;;;;;13.30;11.65;;;15.00;99.90;;;;;;5034429;28;20056;-71
2021/10/17 12:34:39;;;;;;;13.05;11.85;;;15.00;99.90;;;;;;5016716;28;20116;-71
2021/10/17 12:37:06;;;;;;;14.48;11.73;;;15.00;99.90;;;;;;5016537;28;20035;-71
2021/10/17 12:39:34;;;;;;;16.27;11.57;;;15.00;99.90;;;;;;5034142;28;20033;-71
2021/10/17 12:42:03;;;;;;;12.50;11.27;;;14.90;99.90;;;;;;5034190;28;20100;-70
2021/10/17 12:44:42;;;;;;;12.25;11.15;;;14.90;99.90;;;;;;5034220;28;20095;-71
2021/10/17 12:47:09;;;;;;;12.13;11.02;;;14.90;99.90;;;;;;5016409;28;20156;-71
2021/10/17 12:49:44;;;;;;;12.07;10.90;;;14.90;99.90;;;;;;5034046;28;20017;-71
2021/10/17 12:52:26;;;;;;;13.68;11.82;;;15.00;99.90;;;;;;5034066;28;20356;-70
2021/10/17 12:54:58;;;;;;;12.93;11.73;;;15.00;99.90;;;;;;5034230;28;20029;-71